createdAt,value
2023-02-11T00:02:30.359Z,42.33
2023-02-11T00:05:17.166Z,46.05
2023-02-11T00:08:03.999Z,41.03
2023-02-11T00:10:58.246Z,39.92
2023-02-11T00:13:45.689Z,44.58
2023-02-11T00:16:32.926Z,41.28
2023-02-11T00:19:20.366Z,43.10
2023-02-11T00:22:07.772Z,44.42
2023-02-11T00:24:54.843Z,44.72
2023-02-11T00:27:41.661Z,46.60
2023-02-11T00:30:28.514Z,41.67
2023-02-11T00:33:15.290Z,43.58
2023-02-11T00:36:09.518Z,43.38
2023-02-11T00:38:58.017Z,46.97
2023-02-11T00:41:44.801Z,42.95
2023-02-11T00:44:31.605Z,43.58
2023-02-11T00:47:18.383Z,41.60
2023-02-11T00:50:06.198Z,42.42
2023-02-11T00:52:52.936Z,42.58
2023-02-11T00:55:39.727Z,42.28
2023-02-11T00:58:27.040Z,45.08
2023-02-11T01:01:13.860Z,40.10
2023-02-11T01:04:00.757Z,41.80
2023-02-11T01:06:47.774Z,42.92
2023-02-11T01:09:34.567Z,41.70
2023-02-11T01:12:21.457Z,41.60
2023-02-11T01:15:09.324Z,39.70
2023-02-11T01:17:56.121Z,43.95
2023-02-11T01:20:43.003Z,40.67
2023-02-11T01:23:30.948Z,45.85
2023-02-11T01:26:17.754Z,41.25
2023-02-11T01:29:04.656Z,42.45
2023-02-11T01:31:52.376Z,42.33
2023-02-11T01:34:39.221Z,43.08
2023-02-11T01:37:26.198Z,46.17
2023-02-11T01:40:16.187Z,45.60
2023-02-11T01:43:02.968Z,45.42
2023-02-11T01:45:58.774Z,45.35
2023-02-11T01:48:48.916Z,41.22
2023-02-11T01:51:44.660Z,42.00
2023-02-11T01:54:55.761Z,42.33
2023-02-11T01:57:46.096Z,43.35
2023-02-11T02:00:37.215Z,44.95
2023-02-11T02:03:24.627Z,44.20
2023-02-11T02:06:27.188Z,44.30
2023-02-11T02:09:21.608Z,46.50
2023-02-11T02:12:08.395Z,44.72
2023-02-11T02:15:31.617Z,42.70
2023-02-11T02:18:55.791Z,44.33
2023-02-11T02:21:51.097Z,44.85
2023-02-11T02:24:44.746Z,42.42
2023-02-11T02:27:50.065Z,43.00
2023-02-11T02:30:53.627Z,43.80
2023-02-11T02:34:09.634Z,43.70
2023-02-11T02:37:03.499Z,47.38
2023-02-11T02:39:50.523Z,43.17
2023-02-11T02:42:38.823Z,42.55
2023-02-11T02:45:25.599Z,46.80
2023-02-11T02:48:29.078Z,40.33
2023-02-11T02:51:44.141Z,42.00
2023-02-11T02:54:52.077Z,42.50
2023-02-11T02:58:14.927Z,41.72
2023-02-11T03:01:28.773Z,40.45
2023-02-11T03:04:39.840Z,44.00
2023-02-11T03:07:48.767Z,44.30
2023-02-11T03:10:42.404Z,43.28
2023-02-11T03:13:34.578Z,40.30
2023-02-11T03:16:26.101Z,44.88
2023-02-11T03:19:16.857Z,41.30
2023-02-11T03:22:06.511Z,45.97
2023-02-11T03:24:53.749Z,43.08
2023-02-11T03:28:11.261Z,45.33
2023-02-11T03:31:10.208Z,41.70
2023-02-11T03:34:16.773Z,43.90
2023-02-11T03:37:08.403Z,40.42
2023-02-11T03:40:00.148Z,43.42
2023-02-11T03:42:53.860Z,40.22
2023-02-11T03:45:40.947Z,42.50
2023-02-11T03:48:37.975Z,41.28
2023-02-11T03:51:25.554Z,40.50
2023-02-11T03:54:15.317Z,41.53
2023-02-11T03:57:02.732Z,43.20
2023-02-11T03:59:54.050Z,39.60
2023-02-11T04:02:41.390Z,44.05
2023-02-11T04:05:28.260Z,40.95
2023-02-11T04:08:15.185Z,44.10
2023-02-11T04:11:02.066Z,42.78
2023-02-11T04:13:48.836Z,40.92
2023-02-11T04:16:35.642Z,40.90
2023-02-11T04:19:22.432Z,41.10
2023-02-11T04:22:09.258Z,38.80
2023-02-11T04:24:56.116Z,39.03
2023-02-11T04:27:42.896Z,43.03
2023-02-11T04:30:29.683Z,40.00
2023-02-11T04:33:16.761Z,43.00
2023-02-11T04:36:03.790Z,42.00
2023-02-11T04:38:50.565Z,40.85
2023-02-11T04:41:37.343Z,40.10
2023-02-11T04:44:24.119Z,40.45
2023-02-11T04:47:12.723Z,43.33
2023-02-11T04:49:59.572Z,42.20
2023-02-11T04:52:46.458Z,40.17
2023-02-11T04:55:33.225Z,41.53
2023-02-11T04:58:20.363Z,39.03
2023-02-11T05:01:08.211Z,37.72
2023-02-11T05:03:55.028Z,39.35
2023-02-11T05:06:41.824Z,39.88
2023-02-11T05:09:28.875Z,40.25
2023-02-11T05:12:18.040Z,40.90
2023-02-11T05:15:07.706Z,45.30
2023-02-11T05:17:54.619Z,40.53
2023-02-11T05:20:42.515Z,38.97
2023-02-11T05:23:29.268Z,37.28
2023-02-11T05:26:16.152Z,40.17
2023-02-11T05:29:03.007Z,35.70
2023-02-11T05:31:49.750Z,38.38
2023-02-11T05:34:36.891Z,39.85
2023-02-11T05:37:23.880Z,40.67
2023-02-11T05:40:11.556Z,38.90
2023-02-11T05:42:58.493Z,39.10
2023-02-11T05:45:58.896Z,39.28
2023-02-11T05:48:45.691Z,38.65
2023-02-11T05:51:36.893Z,41.75
2023-02-11T05:54:23.706Z,38.22
2023-02-11T05:57:10.482Z,38.40
2023-02-11T05:59:57.268Z,41.20
2023-02-11T06:02:44.191Z,40.58
2023-02-11T06:05:31.411Z,43.70
2023-02-11T06:08:18.485Z,42.85
2023-02-11T06:11:05.308Z,42.35
2023-02-11T06:13:52.073Z,41.08
2023-02-11T06:16:38.932Z,41.10
2023-02-11T06:19:30.999Z,38.28
2023-02-11T06:22:17.818Z,42.22
2023-02-11T06:25:05.316Z,41.78
2023-02-11T06:27:52.094Z,38.15
2023-02-11T06:30:38.889Z,41.28
2023-02-11T06:33:25.651Z,38.45
2023-02-11T06:36:18.480Z,38.13
2023-02-11T06:39:05.452Z,42.33
2023-02-11T06:41:52.248Z,37.90
2023-02-11T06:44:39.097Z,43.45
2023-02-11T06:47:25.905Z,40.83
2023-02-11T06:50:14.255Z,39.33
2023-02-11T06:53:01.542Z,39.10
2023-02-11T06:55:48.598Z,38.13
2023-02-11T06:58:35.523Z,40.13
2023-02-11T07:01:23.383Z,39.90
2023-02-11T07:04:10.688Z,39.55
2023-02-11T07:06:57.537Z,40.72
2023-02-11T07:09:44.426Z,36.97
2023-02-11T07:12:31.557Z,38.25
2023-02-11T07:15:18.445Z,41.53
2023-02-11T07:18:05.251Z,40.60
2023-02-11T07:20:52.091Z,40.25
2023-02-11T07:23:40.716Z,41.65
2023-02-11T07:26:28.949Z,40.85
2023-02-11T07:29:15.750Z,41.63
2023-02-11T07:32:02.600Z,41.95
2023-02-11T07:34:49.510Z,42.13
2023-02-11T07:37:36.484Z,40.78
2023-02-11T07:40:23.249Z,42.90
2023-02-11T07:43:10.014Z,39.47
2023-02-11T07:45:56.777Z,39.80
2023-02-11T07:48:43.676Z,38.08
2023-02-11T07:51:31.263Z,34.95
2023-02-11T07:54:18.020Z,40.17
2023-02-11T07:57:08.371Z,37.13
2023-02-11T08:00:04.216Z,37.13
2023-02-11T08:02:50.938Z,37.10
2023-02-11T08:05:38.618Z,39.10
2023-02-11T08:08:28.571Z,35.75
2023-02-11T08:11:18.605Z,36.78
2023-02-11T08:14:05.398Z,38.83
2023-02-11T08:16:52.200Z,37.90
2023-02-11T08:19:39.213Z,39.45
2023-02-11T08:22:26.032Z,35.03
2023-02-11T08:25:15.127Z,36.13
2023-02-11T08:28:01.971Z,30.13
2023-02-11T08:30:49.022Z,32.33
2023-02-11T08:33:40.596Z,28.10
2023-02-11T08:36:32.701Z,31.33
2023-02-11T08:39:23.129Z,31.85
2023-02-11T08:42:10.078Z,28.73
2023-02-11T08:44:59.455Z,27.00
2023-02-11T08:50:32.857Z,29.90
2023-02-11T08:53:19.675Z,28.02
2023-02-11T08:56:06.932Z,28.75
2023-02-11T08:58:57.027Z,29.20
2023-02-11T09:01:44.362Z,28.50
2023-02-11T09:04:31.359Z,29.92
2023-02-11T09:07:18.178Z,33.88
2023-02-11T09:10:06.306Z,28.52
2023-02-11T09:12:53.119Z,28.67
2023-02-11T09:15:39.946Z,27.50
2023-02-11T09:18:26.986Z,29.80
2023-02-11T09:21:20.338Z,28.00
2023-02-11T09:24:07.260Z,29.50
2023-02-11T09:26:58.532Z,30.00
2023-02-11T09:29:48.592Z,29.65
2023-02-11T09:32:35.838Z,31.25
2023-02-11T09:35:22.634Z,26.25
2023-02-11T09:38:09.673Z,26.33
2023-02-11T09:40:56.434Z,26.77
2023-02-11T09:43:46.560Z,26.88
2023-02-11T09:46:44.517Z,26.40
2023-02-11T09:49:43.689Z,26.83
2023-02-11T09:52:59.323Z,29.15
2023-02-11T09:55:48.418Z,26.23
2023-02-11T09:58:36.860Z,27.00
2023-02-11T10:01:57.006Z,28.73
2023-02-11T10:05:09.530Z,23.92
2023-02-11T10:08:16.571Z,28.05
2023-02-11T10:11:22.637Z,27.20
2023-02-11T10:14:47.124Z,27.52
2023-02-11T10:17:55.435Z,27.92
2023-02-11T10:20:50.087Z,26.80
2023-02-11T10:23:40.873Z,28.67
2023-02-11T10:26:30.915Z,26.30
2023-02-11T10:29:40.745Z,29.58
2023-02-11T10:32:30.247Z,27.08
2023-02-11T10:35:23.966Z,28.55
2023-02-11T10:38:11.413Z,27.17
2023-02-11T10:40:58.173Z,26.88
2023-02-11T10:43:48.206Z,26.65
2023-02-11T10:46:40.179Z,29.50
2023-02-11T10:49:38.603Z,31.10
2023-02-11T10:52:28.420Z,32.50
2023-02-11T10:55:18.074Z,28.15
2023-02-11T10:58:04.901Z,28.50
2023-02-11T11:00:53.887Z,35.47
2023-02-11T11:03:47.815Z,31.60
2023-02-11T11:06:35.237Z,27.02
2023-02-11T11:09:28.971Z,32.88
2023-02-11T11:12:26.140Z,31.75
2023-02-11T11:15:18.160Z,29.58
2023-02-11T11:18:31.478Z,29.48
2023-02-11T11:21:27.989Z,29.77
2023-02-11T11:24:20.867Z,26.88
2023-02-11T11:27:15.942Z,30.33
2023-02-11T11:30:03.353Z,29.70
2023-02-11T11:32:50.154Z,27.13
2023-02-11T11:35:37.003Z,29.85
2023-02-11T11:38:24.613Z,26.27
2023-02-11T11:41:21.522Z,31.13
2023-02-11T11:44:28.116Z,27.70
2023-02-11T11:47:20.688Z,27.80
2023-02-11T11:50:22.530Z,27.13
2023-02-11T11:53:18.723Z,28.70
2023-02-11T11:56:09.540Z,25.20
2023-02-11T11:59:03.769Z,29.25
2023-02-11T12:02:21.521Z,28.80
2023-02-11T12:05:59.209Z,28.00
2023-02-11T12:09:08.799Z,26.80
2023-02-11T12:11:58.931Z,27.20
2023-02-11T12:14:57.813Z,25.77
2023-02-11T12:18:22.006Z,25.27
2023-02-11T12:21:20.623Z,26.52
2023-02-11T12:24:45.814Z,25.85
2023-02-11T12:27:45.177Z,26.23
2023-02-11T12:30:51.239Z,26.10
2023-02-11T12:33:44.762Z,24.10
2023-02-11T12:37:09.250Z,27.40
2023-02-11T12:40:14.066Z,30.73
2023-02-11T12:43:16.565Z,28.77
2023-02-11T12:46:39.476Z,27.60
2023-02-11T12:49:58.713Z,27.65
2023-02-11T12:53:25.708Z,27.95
2023-02-11T12:56:50.937Z,26.67
2023-02-11T13:00:42.391Z,30.15
2023-02-11T13:04:06.354Z,26.42
2023-02-11T13:07:57.299Z,30.83
2023-02-11T13:14:15.588Z,26.80
2023-02-11T13:17:09.030Z,24.73
2023-02-11T13:20:06.549Z,26.48
2023-02-11T13:23:04.666Z,25.92
2023-02-11T13:26:06.100Z,24.90
2023-02-11T13:29:21.797Z,23.80
2023-02-11T13:32:20.426Z,27.02
2023-02-11T13:35:30.922Z,26.58
2023-02-11T13:38:24.115Z,27.15
2023-02-11T13:41:24.776Z,27.58
2023-02-11T13:44:11.645Z,27.80
2023-02-11T13:47:10.296Z,26.90
2023-02-11T13:50:04.043Z,28.80
2023-02-11T13:53:03.356Z,26.30
2023-02-11T13:58:51.413Z,23.38
2023-02-11T14:02:07.432Z,24.67
2023-02-11T14:05:22.370Z,27.67
2023-02-11T14:08:47.366Z,27.75
2023-02-11T14:22:40.661Z,25.63
2023-02-11T14:25:32.305Z,25.40
2023-02-11T14:28:24.619Z,26.33
2023-02-11T14:31:21.423Z,27.77
2023-02-11T14:34:24.799Z,28.80
2023-02-11T14:37:22.572Z,26.35
2023-02-11T14:40:29.809Z,26.92
2023-02-11T14:43:20.183Z,25.83
2023-02-11T14:46:07.081Z,27.67
2023-02-11T14:48:58.390Z,27.40
2023-02-11T14:51:45.162Z,28.48
2023-02-11T14:54:33.304Z,27.10
2023-02-11T14:57:22.387Z,29.70
2023-02-11T15:00:17.658Z,25.40
2023-02-11T15:03:07.264Z,27.77
2023-02-11T15:05:56.921Z,29.73
2023-02-11T15:08:47.298Z,29.63
2023-02-11T15:11:39.713Z,26.60
2023-02-11T15:14:32.369Z,26.92
2023-02-11T15:17:24.686Z,25.73
2023-02-11T15:20:24.666Z,25.88
2023-02-11T15:23:20.549Z,25.73
2023-02-11T15:26:15.217Z,26.95
2023-02-11T15:29:01.983Z,26.25
2023-02-11T15:32:03.493Z,29.65
2023-02-11T15:34:52.610Z,27.15
2023-02-11T15:37:39.895Z,28.85
2023-02-11T15:40:32.972Z,27.63
2023-02-11T15:43:19.761Z,31.77
2023-02-11T15:46:06.797Z,30.23
2023-02-11T15:48:54.826Z,31.65
2023-02-11T15:51:45.462Z,32.60
2023-02-11T15:54:32.497Z,31.88
2023-02-11T15:57:20.222Z,33.20
2023-02-11T16:00:08.119Z,33.35
2023-02-11T16:02:54.933Z,33.05
2023-02-11T16:05:41.750Z,31.42
2023-02-11T16:08:29.901Z,31.30
2023-02-11T16:11:31.097Z,30.60
2023-02-11T16:14:23.948Z,29.00
2023-02-11T16:17:13.230Z,30.50
2023-02-11T16:22:47.143Z,30.38
2023-02-11T16:25:37.475Z,32.47
2023-02-11T16:28:25.729Z,28.13
2023-02-11T16:31:13.269Z,30.60
2023-02-11T16:34:00.112Z,30.30
2023-02-11T16:36:47.724Z,31.42
2023-02-11T16:39:34.618Z,30.23
2023-02-11T16:42:23.410Z,31.85
2023-02-11T16:45:18.767Z,29.52
2023-02-11T16:48:17.103Z,29.30
2023-02-11T16:51:09.356Z,30.93
2023-02-11T16:53:56.184Z,27.85
2023-02-11T16:56:44.063Z,30.05
2023-02-11T16:59:30.880Z,28.15
2023-02-11T17:02:24.297Z,31.10
2023-02-11T17:05:22.934Z,30.52
2023-02-11T17:08:13.080Z,29.67
2023-02-11T17:11:05.312Z,31.23
2023-02-11T17:13:52.108Z,28.85
2023-02-11T17:16:39.168Z,26.55
2023-02-11T17:19:31.162Z,24.85
2023-02-11T17:22:18.671Z,25.90
2023-02-11T17:25:06.590Z,23.42
2023-02-11T17:27:53.735Z,22.42
2023-02-11T17:30:44.722Z,24.90
2023-02-11T17:33:31.794Z,23.30
2023-02-11T17:36:19.496Z,24.63
2023-02-11T17:39:08.259Z,23.13
2023-02-11T17:41:55.202Z,22.83
2023-02-11T17:44:46.431Z,22.50
2023-02-11T17:47:36.390Z,22.23
2023-02-11T17:50:23.210Z,22.05
2023-02-11T17:53:12.416Z,22.95
2023-02-11T17:56:11.247Z,22.40
2023-02-11T17:59:02.492Z,23.00
2023-02-11T18:01:49.282Z,21.92
2023-02-11T18:04:36.520Z,22.95
2023-02-11T18:07:23.428Z,21.65
2023-02-11T18:10:10.719Z,20.08
2023-02-11T18:12:57.464Z,20.50
2023-02-11T18:15:44.349Z,22.15
2023-02-11T18:18:31.262Z,21.10
2023-02-11T18:21:19.888Z,19.90
2023-02-11T18:24:07.308Z,20.30
2023-02-11T18:26:54.147Z,20.77
2023-02-11T18:29:40.880Z,20.55
2023-02-11T18:32:30.791Z,21.13
2023-02-11T18:35:17.592Z,19.00
2023-02-11T18:38:04.387Z,19.83
2023-02-11T18:40:52.335Z,18.77
2023-02-11T18:43:40.005Z,20.90
2023-02-11T18:46:26.829Z,19.27
2023-02-11T18:49:14.543Z,20.63
2023-02-11T18:52:01.298Z,19.42
2023-02-11T18:54:51.332Z,19.48
2023-02-11T18:57:38.085Z,19.85
2023-02-11T19:00:26.984Z,19.67
2023-02-11T19:03:14.088Z,18.65
2023-02-11T19:06:00.853Z,20.27
2023-02-11T19:08:47.939Z,19.52
2023-02-11T19:11:54.309Z,19.90
2023-02-11T19:14:41.409Z,16.85
2023-02-11T19:17:28.154Z,18.65
2023-02-11T19:20:15.012Z,19.83
2023-02-11T19:23:01.823Z,18.88
2023-02-11T19:25:48.817Z,18.77
2023-02-11T19:28:37.064Z,18.58
2023-02-11T19:31:24.109Z,20.27
2023-02-11T19:34:14.064Z,17.67
2023-02-11T19:37:01.602Z,18.98
2023-02-11T19:39:51.552Z,19.30
2023-02-11T19:42:38.733Z,18.00
2023-02-11T19:45:26.862Z,19.00
2023-02-11T19:48:13.586Z,17.70
2023-02-11T19:51:07.936Z,19.52
2023-02-11T19:53:54.718Z,18.00
2023-02-11T19:56:41.614Z,17.27
2023-02-11T19:59:28.406Z,19.63
2023-02-11T20:02:18.901Z,18.02
2023-02-11T20:05:06.338Z,19.08
2023-02-11T20:07:53.098Z,17.50
2023-02-11T20:10:40.376Z,18.13
2023-02-11T20:13:27.939Z,19.90
2023-02-11T20:16:17.226Z,18.67
2023-02-11T20:21:55.629Z,18.27
2023-02-11T20:24:50.503Z,16.88
2023-02-11T20:27:37.720Z,18.75
2023-02-11T20:30:24.842Z,18.80
2023-02-11T20:33:11.642Z,18.55
2023-02-11T20:36:04.481Z,19.48
2023-02-11T20:38:51.613Z,18.27
2023-02-11T20:41:39.970Z,19.15
2023-02-11T20:44:27.358Z,21.13
2023-02-11T20:47:14.274Z,20.70
2023-02-11T20:50:01.168Z,19.20
2023-02-11T20:52:48.536Z,18.35
2023-02-11T20:55:37.897Z,19.17
2023-02-11T21:01:20.722Z,20.83
2023-02-11T21:04:12.994Z,19.48
2023-02-11T21:07:01.616Z,19.48
2023-02-11T21:09:49.324Z,21.02
2023-02-11T21:12:38.878Z,20.73
2023-02-11T21:15:25.714Z,20.48
2023-02-11T21:18:13.271Z,20.80
2023-02-11T21:21:00.175Z,18.20
2023-02-11T21:23:47.621Z,19.77
2023-02-11T21:26:35.533Z,19.15
2023-02-11T21:29:22.283Z,20.15
2023-02-11T21:32:09.081Z,20.60
2023-02-11T21:34:55.976Z,19.45
2023-02-11T21:37:42.742Z,22.67
2023-02-11T21:40:38.688Z,19.15
2023-02-11T21:43:25.541Z,20.85
2023-02-11T21:46:14.477Z,20.75
2023-02-11T21:49:01.506Z,18.85
2023-02-11T21:51:48.390Z,18.45
2023-02-11T21:54:35.178Z,20.75
2023-02-11T21:57:21.922Z,20.75
2023-02-11T22:00:09.832Z,19.50
2023-02-11T22:02:56.718Z,22.17
2023-02-11T22:05:46.571Z,21.40
2023-02-11T22:08:34.805Z,21.35
2023-02-11T22:11:21.641Z,20.80
2023-02-11T22:14:08.546Z,19.88
2023-02-11T22:16:55.375Z,20.88
2023-02-11T22:19:42.205Z,20.90
2023-02-11T22:22:29.347Z,19.45
2023-02-11T22:25:19.355Z,19.70
2023-02-11T22:28:06.265Z,20.58
2023-02-11T22:30:55.289Z,20.35
2023-02-11T22:33:42.722Z,20.63
2023-02-11T22:36:31.794Z,21.25
2023-02-11T22:39:21.093Z,21.02
2023-02-11T22:44:54.750Z,19.30
2023-02-11T22:47:41.609Z,19.77
2023-02-11T22:50:28.408Z,21.65
2023-02-11T22:53:15.171Z,19.88
2023-02-11T22:56:05.632Z,19.00
2023-02-11T22:58:53.652Z,19.63
2023-02-11T23:01:40.674Z,21.42
2023-02-11T23:04:27.518Z,19.98
2023-02-11T23:07:22.057Z,20.70
2023-02-11T23:10:09.901Z,18.90
2023-02-11T23:12:56.696Z,21.52
2023-02-11T23:15:45.174Z,20.85
2023-02-11T23:18:32.175Z,19.15
2023-02-11T23:21:21.890Z,18.88
2023-02-11T23:24:12.260Z,20.65
2023-02-11T23:26:59.109Z,20.77
2023-02-11T23:29:45.879Z,20.63
2023-02-11T23:32:32.813Z,19.67
2023-02-11T23:35:23.159Z,19.65
2023-02-11T23:38:13.496Z,19.35
2023-02-11T23:41:07.444Z,19.67
2023-02-11T23:43:56.304Z,19.50
2023-02-11T23:47:06.299Z,20.33
2023-02-11T23:49:54.228Z,19.35
2023-02-11T23:52:44.119Z,18.65
2023-02-11T23:55:31.007Z,19.33
2023-02-11T23:58:17.957Z,19.83
